createdAt,value
2023-03-18T00:01:47.730Z,13.69
2023-03-18T00:04:18.399Z,13.66
2023-03-18T00:06:48.776Z,13.66
2023-03-18T00:09:19.495Z,13.66
2023-03-18T00:11:49.603Z,13.69
2023-03-18T00:14:20.279Z,13.69
2023-03-18T00:16:50.454Z,13.68
2023-03-18T00:19:20.867Z,13.69
2023-03-18T00:21:51.195Z,13.70
2023-03-18T00:24:22.365Z,13.67
2023-03-18T00:26:52.712Z,13.63
2023-03-18T00:29:23.420Z,13.59
2023-03-18T00:31:53.905Z,13.57
2023-03-18T00:34:24.892Z,13.55
2023-03-18T00:36:56.762Z,13.52
2023-03-18T00:39:28.640Z,13.48
2023-03-18T00:41:58.925Z,13.47
2023-03-18T00:44:29.175Z,13.47
2023-03-18T00:46:59.438Z,13.46
2023-03-18T00:49:29.895Z,13.47
2023-03-18T00:52:00.383Z,13.48
2023-03-18T00:54:30.581Z,13.51
2023-03-18T00:57:01.704Z,13.53
2023-03-18T00:59:32.977Z,13.55
2023-03-18T01:02:03.805Z,13.59
2023-03-18T01:04:34.477Z,13.62
2023-03-18T01:07:05.539Z,13.60
2023-03-18T01:09:36.919Z,13.59
2023-03-18T01:12:09.419Z,13.56
2023-03-18T01:14:40.857Z,13.53
2023-03-18T01:17:11.544Z,13.49
2023-03-18T01:19:43.496Z,13.45
2023-03-18T01:22:14.361Z,13.45
2023-03-18T01:24:45.055Z,13.46
2023-03-18T01:27:15.547Z,13.46
2023-03-18T01:29:46.310Z,13.49
2023-03-18T01:32:16.957Z,13.52
2023-03-18T01:34:47.861Z,13.56
2023-03-18T01:37:19.258Z,13.57
2023-03-18T01:39:49.898Z,13.57
2023-03-18T01:42:21.045Z,13.55
2023-03-18T01:44:51.984Z,13.53
2023-03-18T01:47:22.368Z,13.52
2023-03-18T01:49:53.027Z,13.52
2023-03-18T01:52:25.663Z,13.53
2023-03-18T01:54:59.535Z,13.56
2023-03-18T01:57:32.446Z,13.56
2023-03-18T02:00:04.436Z,13.57
2023-03-18T02:02:35.150Z,13.61
2023-03-18T02:05:08.391Z,13.63
2023-03-18T02:07:41.155Z,13.64
2023-03-18T02:10:14.301Z,13.63
2023-03-18T02:12:45.986Z,13.63
2023-03-18T02:15:19.571Z,13.62
2023-03-18T02:17:54.414Z,13.63
2023-03-18T02:20:35.579Z,13.62
2023-03-18T02:23:14.681Z,13.60
2023-03-18T02:25:50.563Z,13.58
2023-03-18T02:28:23.159Z,13.56
2023-03-18T02:30:55.211Z,13.53
2023-03-18T02:33:28.995Z,13.52
2023-03-18T02:36:05.719Z,13.54
2023-03-18T02:38:36.101Z,13.55
2023-03-18T02:41:06.877Z,13.54
2023-03-18T02:43:37.397Z,13.53
2023-03-18T02:46:15.856Z,13.52
2023-03-18T02:48:47.294Z,13.51
2023-03-18T02:51:18.653Z,13.52
2023-03-18T02:53:50.446Z,13.50
2023-03-18T02:56:20.751Z,13.47
2023-03-18T02:58:51.824Z,13.46
2023-03-18T03:01:23.757Z,13.47
2023-03-18T03:03:54.178Z,13.49
2023-03-18T03:06:25.251Z,13.51
2023-03-18T03:08:57.267Z,13.52
2023-03-18T03:11:27.442Z,13.54
2023-03-18T03:13:57.796Z,13.54
2023-03-18T03:16:28.612Z,13.57
2023-03-18T03:18:59.342Z,13.62
2023-03-18T03:21:29.530Z,13.65
2023-03-18T03:23:59.906Z,13.65
2023-03-18T03:26:30.418Z,13.66
2023-03-18T03:29:01.396Z,13.66
2023-03-18T03:31:32.529Z,13.68
2023-03-18T03:34:03.634Z,13.70
2023-03-18T03:36:34.069Z,13.72
2023-03-18T03:39:04.708Z,13.77
2023-03-18T03:41:35.022Z,13.84
2023-03-18T03:44:05.655Z,13.91
2023-03-18T03:46:35.936Z,13.99
2023-03-18T03:49:07.700Z,14.05
2023-03-18T03:51:37.846Z,14.10
2023-03-18T03:54:08.472Z,14.14
2023-03-18T03:56:38.478Z,14.17
2023-03-18T03:59:10.408Z,14.20
2023-03-18T04:01:41.076Z,14.26
2023-03-18T04:04:11.301Z,14.32
2023-03-18T04:06:42.066Z,14.38
2023-03-18T04:09:12.383Z,14.45
2023-03-18T04:11:44.509Z,14.54
2023-03-18T04:14:14.723Z,14.62
2023-03-18T04:16:45.426Z,14.71
2023-03-18T04:19:16.494Z,14.81
2023-03-18T04:21:47.013Z,14.89
2023-03-18T04:24:17.313Z,14.98
2023-03-18T04:26:47.602Z,15.05
2023-03-18T04:29:17.891Z,15.10
2023-03-18T04:31:48.378Z,15.17
2023-03-18T04:34:18.552Z,15.28
2023-03-18T04:36:49.036Z,15.39
2023-03-18T04:39:19.781Z,15.53
2023-03-18T04:41:50.106Z,15.65
2023-03-18T04:44:20.775Z,15.76
2023-03-18T04:46:51.863Z,15.87
2023-03-18T04:49:22.002Z,15.96
2023-03-18T04:51:52.121Z,16.05
2023-03-18T04:54:22.964Z,16.09
2023-03-18T04:56:54.124Z,16.15
2023-03-18T04:59:24.505Z,16.23
2023-03-18T05:01:54.837Z,16.28
2023-03-18T05:04:25.032Z,16.34
2023-03-18T05:06:55.549Z,16.43
2023-03-18T05:09:26.037Z,16.53
2023-03-18T05:11:56.532Z,16.64
2023-03-18T05:14:27.101Z,16.76
2023-03-18T05:16:57.408Z,16.91
2023-03-18T05:19:28.312Z,17.00
2023-03-18T05:21:58.658Z,17.05
2023-03-18T05:24:29.436Z,17.13
2023-03-18T05:27:00.426Z,17.24
2023-03-18T05:29:41.444Z,17.39
2023-03-18T05:32:14.345Z,17.64
2023-03-18T05:34:45.070Z,17.97
2023-03-18T05:37:16.690Z,18.30
2023-03-18T05:39:47.052Z,18.67
2023-03-18T05:42:17.903Z,18.99
2023-03-18T05:44:49.598Z,19.24
2023-03-18T05:47:20.047Z,19.50
2023-03-18T05:49:50.630Z,19.67
2023-03-18T05:52:21.633Z,19.81
2023-03-18T05:54:52.858Z,19.89
2023-03-18T05:57:23.500Z,19.95
2023-03-18T05:59:54.973Z,19.93
2023-03-18T06:02:26.721Z,19.79
2023-03-18T06:04:58.167Z,19.58
2023-03-18T06:07:28.640Z,19.19
2023-03-18T06:09:59.460Z,18.81
2023-03-18T06:12:29.632Z,18.61
2023-03-18T06:15:00.040Z,18.59
2023-03-18T06:17:30.224Z,18.71
2023-03-18T06:20:00.724Z,18.83
2023-03-18T06:22:32.650Z,18.85
2023-03-18T06:25:03.809Z,18.72
2023-03-18T06:27:34.176Z,18.60
2023-03-18T06:30:05.575Z,18.57
2023-03-18T06:32:35.854Z,18.59
2023-03-18T06:35:08.201Z,18.67
2023-03-18T06:37:38.854Z,18.90
2023-03-18T06:40:12.044Z,19.31
2023-03-18T06:42:42.270Z,19.82
2023-03-18T06:45:15.665Z,20.39
2023-03-18T06:47:46.823Z,20.93
2023-03-18T06:50:18.013Z,21.30
2023-03-18T06:52:49.769Z,21.67
2023-03-18T06:55:20.548Z,22.29
2023-03-18T06:57:50.740Z,23.01
2023-03-18T07:00:24.425Z,23.46
2023-03-18T07:02:55.007Z,23.76
2023-03-18T07:05:26.268Z,24.00
2023-03-18T07:07:56.986Z,24.54
2023-03-18T07:10:29.399Z,25.55
2023-03-18T07:13:00.080Z,26.32
2023-03-18T07:15:31.631Z,27.26
2023-03-18T07:18:02.856Z,28.22
2023-03-18T07:20:34.322Z,28.47
2023-03-18T07:23:05.153Z,28.82
2023-03-18T07:25:36.289Z,29.60
2023-03-18T07:28:07.361Z,30.15
2023-03-18T07:30:38.246Z,30.37
2023-03-18T07:33:09.158Z,30.12
2023-03-18T07:35:41.334Z,29.53
2023-03-18T07:38:13.436Z,28.68
2023-03-18T07:40:47.040Z,28.06
2023-03-18T07:43:17.724Z,27.48
2023-03-18T07:45:48.149Z,27.14
2023-03-18T07:48:19.197Z,27.68
2023-03-18T07:50:50.033Z,27.88
2023-03-18T07:53:21.038Z,27.62
2023-03-18T07:55:51.560Z,27.45
2023-03-18T07:58:21.835Z,27.44
2023-03-18T08:00:52.578Z,27.42
2023-03-18T08:03:23.234Z,26.92
2023-03-18T08:05:53.711Z,27.44
2023-03-18T08:08:25.046Z,27.06
2023-03-18T08:11:00.193Z,26.70
2023-03-18T08:13:30.855Z,26.45
2023-03-18T08:16:01.345Z,26.10
2023-03-18T08:18:31.700Z,25.92
2023-03-18T08:21:02.227Z,25.85
2023-03-18T08:23:33.236Z,25.55
2023-03-18T08:26:03.731Z,25.08
2023-03-18T08:28:34.050Z,24.68
2023-03-18T08:31:05.452Z,24.47
2023-03-18T08:33:36.532Z,24.54
2023-03-18T08:36:09.208Z,24.78
2023-03-18T08:38:40.090Z,24.93
2023-03-18T08:41:10.604Z,25.02
2023-03-18T08:43:40.889Z,24.92
2023-03-18T08:46:11.357Z,24.93
2023-03-18T08:48:42.395Z,25.14
2023-03-18T08:51:13.373Z,25.25
2023-03-18T08:53:43.663Z,25.30
2023-03-18T08:56:14.586Z,25.42
2023-03-18T08:58:45.981Z,25.51
2023-03-18T09:01:17.071Z,25.51
2023-03-18T09:03:47.669Z,25.34
2023-03-18T09:06:18.588Z,25.08
2023-03-18T09:08:49.276Z,24.75
2023-03-18T09:11:19.906Z,24.43
2023-03-18T09:13:50.520Z,24.25
2023-03-18T09:16:21.244Z,24.09
2023-03-18T09:18:52.157Z,23.95
2023-03-18T09:21:22.461Z,23.92
2023-03-18T09:23:52.958Z,23.97
2023-03-18T09:26:23.481Z,23.99
2023-03-18T09:28:54.093Z,24.02
2023-03-18T09:31:24.373Z,24.16
2023-03-18T09:33:55.186Z,24.21
2023-03-18T09:36:25.882Z,24.21
2023-03-18T09:38:56.551Z,24.32
2023-03-18T09:41:33.863Z,24.38
2023-03-18T09:44:15.215Z,24.18
2023-03-18T09:46:55.644Z,23.93
2023-03-18T09:49:35.066Z,23.74
2023-03-18T09:52:18.938Z,23.72
2023-03-18T09:54:54.254Z,23.71
2023-03-18T09:57:28.742Z,23.66
2023-03-18T10:00:05.777Z,23.73
2023-03-18T10:02:39.343Z,23.81
2023-03-18T10:05:15.831Z,23.76
2023-03-18T10:07:48.131Z,23.68
2023-03-18T10:10:25.429Z,23.52
2023-03-18T10:13:03.544Z,23.32
2023-03-18T10:15:37.316Z,23.08
2023-03-18T10:18:13.659Z,22.95
2023-03-18T10:20:57.291Z,22.82
2023-03-18T10:23:38.169Z,22.74
2023-03-18T10:26:17.166Z,22.68
2023-03-18T10:28:58.059Z,22.60
2023-03-18T10:31:37.780Z,22.53
2023-03-18T10:34:11.337Z,22.49
2023-03-18T10:36:50.319Z,22.49
2023-03-18T10:39:23.589Z,22.45
2023-03-18T10:41:55.184Z,22.50
2023-03-18T10:44:27.348Z,22.56
2023-03-18T10:47:01.022Z,22.63
2023-03-18T10:49:33.487Z,22.66
2023-03-18T10:52:08.596Z,22.57
2023-03-18T10:54:41.921Z,22.37
2023-03-18T10:57:14.412Z,22.26
2023-03-18T10:59:45.217Z,22.17
2023-03-18T11:02:19.855Z,21.97
2023-03-18T11:04:54.306Z,21.82
2023-03-18T11:07:27.145Z,21.69
2023-03-18T11:10:12.870Z,21.61
2023-03-18T11:12:44.789Z,21.61
2023-03-18T11:15:19.489Z,21.66
2023-03-18T11:17:51.707Z,21.65
2023-03-18T11:20:24.306Z,21.55
2023-03-18T11:22:57.368Z,21.49
2023-03-18T11:25:31.203Z,21.42
2023-03-18T11:28:05.937Z,21.37
2023-03-18T11:30:48.048Z,21.42
2023-03-18T11:33:19.545Z,21.50
2023-03-18T11:35:53.355Z,21.58
2023-03-18T11:38:28.929Z,21.67
2023-03-18T11:41:09.300Z,21.74
2023-03-18T11:43:39.573Z,21.89
2023-03-18T11:46:11.191Z,22.02
2023-03-18T11:48:43.106Z,22.17
2023-03-18T11:51:32.514Z,22.27
2023-03-18T11:54:34.245Z,22.29
2023-03-18T11:57:12.173Z,22.44
2023-03-18T11:59:50.477Z,22.58
2023-03-18T12:02:43.319Z,22.70
2023-03-18T12:05:29.578Z,22.77
2023-03-18T12:08:09.585Z,22.77
2023-03-18T12:10:47.946Z,22.76
2023-03-18T12:13:35.209Z,22.78
2023-03-18T12:16:11.830Z,22.72
2023-03-18T12:18:56.177Z,22.72
2023-03-18T12:21:49.520Z,22.70
2023-03-18T12:24:45.498Z,22.71
2023-03-18T12:27:21.374Z,22.77
2023-03-18T12:30:09.645Z,22.70
2023-03-18T12:32:42.603Z,22.66
2023-03-18T12:35:39.692Z,22.61
2023-03-18T12:38:21.381Z,22.60
2023-03-18T12:40:59.790Z,22.59
2023-03-18T12:43:46.270Z,22.54
2023-03-18T12:46:24.364Z,22.50
2023-03-18T12:48:59.206Z,22.36
2023-03-18T12:51:34.696Z,22.20
2023-03-18T12:54:11.076Z,22.04
2023-03-18T12:56:45.541Z,21.82
2023-03-18T12:59:20.144Z,21.68
2023-03-18T13:01:58.114Z,21.52
2023-03-18T13:04:32.625Z,21.36
2023-03-18T13:07:06.483Z,21.12
2023-03-18T13:09:39.309Z,20.85
2023-03-18T13:12:13.385Z,20.57
2023-03-18T13:14:51.289Z,20.27
2023-03-18T13:17:29.639Z,20.01
2023-03-18T13:20:01.118Z,19.77
2023-03-18T13:23:00.279Z,19.64
2023-03-18T13:25:40.955Z,19.49
2023-03-18T13:28:39.386Z,19.38
2023-03-18T13:31:19.806Z,19.24
2023-03-18T13:34:04.267Z,19.14
2023-03-18T13:36:57.832Z,19.03
2023-03-18T13:39:38.166Z,18.94
2023-03-18T13:42:23.261Z,18.86
2023-03-18T13:44:59.336Z,18.73
2023-03-18T13:47:33.277Z,18.61
2023-03-18T13:50:06.777Z,18.53
2023-03-18T13:52:44.591Z,18.48
2023-03-18T13:55:25.684Z,18.44
2023-03-18T13:57:58.675Z,18.40
2023-03-18T14:00:34.862Z,18.35
2023-03-18T14:03:29.639Z,18.30
2023-03-18T14:06:46.747Z,18.27
2023-03-18T14:09:36.309Z,18.22
2023-03-18T14:12:40.479Z,18.18
2023-03-18T14:15:45.241Z,18.14
2023-03-18T14:18:27.470Z,18.11
2023-03-18T14:21:04.766Z,18.08
2023-03-18T14:23:40.206Z,18.06
2023-03-18T14:26:20.037Z,18.04
2023-03-18T14:28:55.648Z,18.02
2023-03-18T14:31:37.213Z,17.99
2023-03-18T14:34:27.516Z,17.98
2023-03-18T14:37:26.034Z,17.98
2023-03-18T14:40:00.530Z,17.97
2023-03-18T14:42:38.808Z,17.93
2023-03-18T14:45:15.169Z,17.90
2023-03-18T14:47:49.309Z,17.88
2023-03-18T14:50:26.338Z,17.86
2023-03-18T14:53:00.405Z,17.84
2023-03-18T14:55:33.812Z,17.81
2023-03-18T14:58:04.650Z,17.78
2023-03-18T15:00:36.965Z,17.78
2023-03-18T15:03:08.889Z,17.77
2023-03-18T15:05:41.509Z,17.77
2023-03-18T15:08:17.948Z,17.75
2023-03-18T15:10:51.335Z,17.68
2023-03-18T15:13:22.254Z,17.62
2023-03-18T15:15:56.158Z,17.55
2023-03-18T15:18:29.229Z,17.50
2023-03-18T15:21:02.788Z,17.45
2023-03-18T15:23:35.249Z,17.40
2023-03-18T15:26:09.851Z,17.36
2023-03-18T15:28:40.478Z,17.31
2023-03-18T15:31:13.636Z,17.29
2023-03-18T15:33:43.913Z,17.27
2023-03-18T15:36:18.009Z,17.22
2023-03-18T15:38:49.437Z,17.10
2023-03-18T15:41:22.263Z,17.03
2023-03-18T15:43:53.021Z,16.96
2023-03-18T15:46:30.850Z,16.92
2023-03-18T15:49:03.139Z,16.86
2023-03-18T15:51:40.443Z,16.71
2023-03-18T15:54:19.387Z,16.51
2023-03-18T15:56:50.765Z,16.41
2023-03-18T15:59:24.289Z,16.32
2023-03-18T16:01:56.013Z,16.27
2023-03-18T16:04:30.075Z,16.24
2023-03-18T16:07:00.612Z,16.22
2023-03-18T16:09:30.986Z,16.21
2023-03-18T16:12:07.803Z,16.20
2023-03-18T16:14:39.983Z,16.15
2023-03-18T16:17:11.966Z,16.03
2023-03-18T16:19:43.607Z,15.92
2023-03-18T16:22:15.185Z,15.80
2023-03-18T16:24:45.987Z,15.71
2023-03-18T16:27:28.582Z,15.63
2023-03-18T16:29:58.868Z,15.55
2023-03-18T16:32:29.360Z,15.42
2023-03-18T16:35:00.390Z,15.29
2023-03-18T16:37:31.237Z,15.20
2023-03-18T16:40:03.123Z,15.15
2023-03-18T16:42:33.570Z,15.09
2023-03-18T16:45:05.110Z,15.07
2023-03-18T16:47:35.773Z,15.06
2023-03-18T16:50:14.475Z,15.07
2023-03-18T16:52:45.171Z,15.08
2023-03-18T16:55:17.422Z,15.08
2023-03-18T16:57:52.380Z,15.08
2023-03-18T17:00:25.333Z,15.07
2023-03-18T17:02:56.390Z,15.05
2023-03-18T17:05:27.004Z,15.00
2023-03-18T17:08:00.125Z,14.92
2023-03-18T17:10:30.850Z,14.84
2023-03-18T17:13:05.572Z,14.78
2023-03-18T17:15:38.144Z,14.72
2023-03-18T17:18:17.375Z,14.66
2023-03-18T17:20:48.656Z,14.61
2023-03-18T17:23:20.883Z,14.56
2023-03-18T17:25:53.029Z,14.52
2023-03-18T17:28:32.988Z,14.47
2023-03-18T17:31:04.178Z,14.45
2023-03-18T17:33:37.440Z,14.46
2023-03-18T17:36:09.405Z,14.51
2023-03-18T17:38:39.897Z,14.55
2023-03-18T17:41:19.085Z,14.59
2023-03-18T17:43:51.175Z,14.63
2023-03-18T17:46:21.814Z,14.65
2023-03-18T17:48:52.368Z,14.67
2023-03-18T17:51:23.780Z,14.67
2023-03-18T17:53:56.727Z,14.66
2023-03-18T17:56:28.031Z,14.65
2023-03-18T17:58:58.679Z,14.62
2023-03-18T18:01:31.333Z,14.57
2023-03-18T18:04:05.584Z,14.53
2023-03-18T18:06:36.281Z,14.51
2023-03-18T18:09:07.468Z,14.47
2023-03-18T18:11:45.065Z,14.41
2023-03-18T18:14:19.806Z,14.36
2023-03-18T18:16:50.517Z,14.29
2023-03-18T18:19:23.076Z,14.25
2023-03-18T18:21:56.626Z,14.24
2023-03-18T18:24:28.867Z,14.23
2023-03-18T18:26:59.811Z,14.18
2023-03-18T18:29:37.068Z,14.14
2023-03-18T18:32:08.437Z,14.14
2023-03-18T18:34:38.800Z,14.13
2023-03-18T18:37:09.416Z,14.10
2023-03-18T18:39:39.601Z,14.06
2023-03-18T18:42:09.940Z,14.00
2023-03-18T18:44:40.287Z,13.97
2023-03-18T18:47:20.221Z,13.96
2023-03-18T18:49:50.787Z,13.94
2023-03-18T18:52:21.884Z,13.93
2023-03-18T18:54:52.295Z,13.92
2023-03-18T18:57:26.584Z,13.89
2023-03-18T18:59:58.026Z,13.86
2023-03-18T19:02:32.600Z,13.84
2023-03-18T19:05:04.609Z,13.83
2023-03-18T19:07:36.782Z,13.82
2023-03-18T19:10:11.987Z,13.81
2023-03-18T19:12:46.103Z,13.81
2023-03-18T19:15:19.565Z,13.82
2023-03-18T19:17:50.205Z,13.83
2023-03-18T19:20:29.742Z,13.84
2023-03-18T19:23:00.387Z,13.84
2023-03-18T19:25:31.364Z,13.86
2023-03-18T19:28:02.360Z,13.89
2023-03-18T19:30:33.562Z,13.92
2023-03-18T19:33:09.127Z,13.94
2023-03-18T19:35:41.118Z,13.97
2023-03-18T19:38:19.959Z,14.01
2023-03-18T19:40:54.832Z,14.05
2023-03-18T19:43:27.801Z,14.11
2023-03-18T19:45:58.357Z,14.15
2023-03-18T19:48:29.464Z,14.19
2023-03-18T19:51:00.308Z,14.24
2023-03-18T19:53:36.848Z,14.28
2023-03-18T19:56:09.001Z,14.30
2023-03-18T19:58:39.504Z,14.31
2023-03-18T20:01:09.848Z,14.32
2023-03-18T20:03:40.176Z,14.34
2023-03-18T20:06:11.623Z,14.34
2023-03-18T20:08:41.967Z,14.32
2023-03-18T20:11:14.770Z,14.31
2023-03-18T20:13:45.563Z,14.30
2023-03-18T20:16:17.919Z,14.28
2023-03-18T20:18:48.357Z,14.26
2023-03-18T20:21:21.672Z,14.21
2023-03-18T20:23:53.939Z,14.19
2023-03-18T20:26:26.024Z,14.17
2023-03-18T20:28:58.334Z,14.15
2023-03-18T20:31:29.885Z,14.16
2023-03-18T20:34:00.461Z,14.19
2023-03-18T20:36:30.753Z,14.20
2023-03-18T20:39:01.006Z,14.23
2023-03-18T20:41:33.672Z,14.26
2023-03-18T20:44:04.185Z,14.27
2023-03-18T20:46:34.863Z,14.28
2023-03-18T20:49:05.358Z,14.26
2023-03-18T20:51:38.294Z,14.26
2023-03-18T20:54:17.319Z,14.27
2023-03-18T20:56:47.805Z,14.25
2023-03-18T20:59:18.233Z,14.23
2023-03-18T21:01:48.341Z,14.22
2023-03-18T21:04:18.968Z,14.22
2023-03-18T21:06:49.237Z,14.21
2023-03-18T21:09:19.503Z,14.21
2023-03-18T21:11:49.719Z,14.19
2023-03-18T21:14:21.208Z,14.18
2023-03-18T21:16:51.713Z,14.18
2023-03-18T21:19:22.311Z,14.18
2023-03-18T21:21:52.480Z,14.18
2023-03-18T21:24:27.288Z,14.19
2023-03-18T21:27:04.726Z,14.18
2023-03-18T21:29:35.951Z,14.16
2023-03-18T21:32:07.108Z,14.15
2023-03-18T21:34:37.651Z,14.16
2023-03-18T21:37:12.750Z,14.18
2023-03-18T21:39:43.415Z,14.22
2023-03-18T21:42:18.538Z,14.26
2023-03-18T21:44:48.665Z,14.30
2023-03-18T21:47:20.729Z,14.33
2023-03-18T21:49:51.552Z,14.37
2023-03-18T21:52:26.308Z,14.39
2023-03-18T21:54:56.631Z,14.40
2023-03-18T21:57:27.295Z,14.39
2023-03-18T21:59:57.405Z,14.38
2023-03-18T22:02:30.023Z,14.38
2023-03-18T22:05:01.777Z,14.36
2023-03-18T22:07:32.804Z,14.35
2023-03-18T22:10:03.228Z,14.33
2023-03-18T22:12:34.706Z,14.32
2023-03-18T22:15:06.660Z,14.31
2023-03-18T22:17:38.969Z,14.30
2023-03-18T22:20:13.248Z,14.29
2023-03-18T22:22:43.746Z,14.27
2023-03-18T22:25:17.052Z,14.25
2023-03-18T22:27:47.456Z,14.25
2023-03-18T22:30:18.529Z,14.26
2023-03-18T22:32:48.922Z,14.28
2023-03-18T22:35:20.801Z,14.31
2023-03-18T22:37:51.638Z,14.35
2023-03-18T22:40:23.307Z,14.38
2023-03-18T22:42:54.807Z,14.40
2023-03-18T22:45:27.336Z,14.43
2023-03-18T22:47:58.541Z,14.45
2023-03-18T22:50:30.399Z,14.45
2023-03-18T22:53:02.577Z,14.44
2023-03-18T22:55:35.338Z,14.42
2023-03-18T22:58:05.642Z,14.39
2023-03-18T23:00:38.597Z,14.37
2023-03-18T23:03:14.459Z,14.33
2023-03-18T23:05:45.531Z,14.30
2023-03-18T23:08:16.461Z,14.26
2023-03-18T23:10:47.404Z,14.21
2023-03-18T23:13:20.462Z,14.17
2023-03-18T23:15:50.995Z,14.12
2023-03-18T23:18:23.304Z,14.09
2023-03-18T23:20:53.733Z,14.05
2023-03-18T23:23:24.306Z,14.01
2023-03-18T23:25:54.614Z,13.98
2023-03-18T23:28:25.042Z,13.95
2023-03-18T23:30:55.800Z,13.93
2023-03-18T23:33:26.130Z,13.92
2023-03-18T23:35:56.779Z,13.92
2023-03-18T23:38:27.448Z,13.91
2023-03-18T23:40:58.103Z,13.90
2023-03-18T23:43:28.676Z,13.89
2023-03-18T23:45:59.257Z,13.86
2023-03-18T23:48:29.692Z,13.82
2023-03-18T23:51:00.446Z,13.80
2023-03-18T23:53:30.910Z,13.80
2023-03-18T23:56:01.282Z,13.81
2023-03-18T23:58:31.397Z,13.82
